createdAt,value
2023-05-08T00:00:32.601Z,99.90
2023-05-08T00:05:34.634Z,99.90
2023-05-08T00:10:37.162Z,99.90
2023-05-08T00:15:39.250Z,99.90
2023-05-08T00:20:41.958Z,99.90
2023-05-08T00:25:44.144Z,99.90
2023-05-08T00:30:46.259Z,99.90
2023-05-08T00:35:48.326Z,99.90
2023-05-08T00:40:50.321Z,99.90
2023-05-08T00:45:53.126Z,99.90
2023-05-08T00:50:56.707Z,99.90
2023-05-08T00:55:59.953Z,99.90
2023-05-08T01:01:02.072Z,99.90
2023-05-08T01:06:04.608Z,99.90
2023-05-08T01:11:26.115Z,99.90
2023-05-08T01:16:44.441Z,99.90
2023-05-08T01:21:54.214Z,99.90
2023-05-08T01:27:27.161Z,99.90
2023-05-08T01:32:37.177Z,99.90
2023-05-08T01:38:12.921Z,99.90
2023-05-08T01:43:29.887Z,99.90
2023-05-08T01:48:35.637Z,99.90
2023-05-08T01:53:43.122Z,99.90
2023-05-08T01:58:46.969Z,99.90
2023-05-08T02:03:52.003Z,99.90
2023-05-08T02:08:56.226Z,99.90
2023-05-08T02:14:01.686Z,99.90
2023-05-08T02:19:05.560Z,99.90
2023-05-08T02:24:09.056Z,99.90
2023-05-08T02:29:11.554Z,99.90
2023-05-08T02:34:16.569Z,99.90
2023-05-08T02:39:20.778Z,99.90
2023-05-08T02:44:23.081Z,99.90
2023-05-08T02:49:40.334Z,99.90
2023-05-08T02:54:49.907Z,99.90
2023-05-08T03:00:04.394Z,99.90
2023-05-08T03:05:17.039Z,99.90
2023-05-08T03:10:19.741Z,99.90
2023-05-08T03:15:28.514Z,99.90
2023-05-08T03:20:35.748Z,99.90
2023-05-08T03:25:39.955Z,99.90
2023-05-08T03:30:43.195Z,99.90
2023-05-08T03:35:49.959Z,99.90
2023-05-08T03:40:52.678Z,99.90
2023-05-08T03:45:56.700Z,99.90
2023-05-08T03:51:01.212Z,99.90
2023-05-08T03:56:03.618Z,99.90
2023-05-08T04:01:32.175Z,99.90
2023-05-08T04:06:53.491Z,99.90
2023-05-08T04:12:18.183Z,99.90
2023-05-08T04:17:34.984Z,99.90
2023-05-08T04:22:39.889Z,99.90
2023-05-08T04:27:43.791Z,99.90
2023-05-08T04:32:56.925Z,99.90
2023-05-08T04:37:59.866Z,99.90
2023-05-08T04:43:02.462Z,99.90
2023-05-08T04:48:05.145Z,99.90
2023-05-08T04:53:07.443Z,99.90
2023-05-08T04:58:13.384Z,99.90
2023-05-08T05:03:15.916Z,99.90
2023-05-08T05:08:18.619Z,99.90
2023-05-08T05:13:21.102Z,99.90
2023-05-08T05:18:23.918Z,99.90
2023-05-08T05:23:27.705Z,99.90
2023-05-08T05:28:29.953Z,99.90
2023-05-08T05:33:33.166Z,99.90
2023-05-08T05:38:35.350Z,99.90
2023-05-08T05:43:37.451Z,99.90
2023-05-08T05:48:39.709Z,99.90
2023-05-08T05:53:44.080Z,99.90
2023-05-08T05:58:46.393Z,99.90
2023-05-08T06:03:48.700Z,99.90
2023-05-08T06:08:50.893Z,99.90
2023-05-08T06:13:52.917Z,99.90
2023-05-08T06:18:54.987Z,99.90
2023-05-08T06:23:57.024Z,99.90
2023-05-08T06:28:59.018Z,99.90
2023-05-08T06:34:01.359Z,99.90
2023-05-08T06:39:06.349Z,99.90
2023-05-08T06:44:08.432Z,99.90
2023-05-08T06:49:10.742Z,99.90
2023-05-08T06:54:12.733Z,99.90
2023-05-08T06:59:14.737Z,99.90
2023-05-08T07:04:16.884Z,99.90
2023-05-08T07:09:18.989Z,99.90
2023-05-08T07:14:21.203Z,99.90
2023-05-08T07:19:23.208Z,99.90
2023-05-08T07:24:25.261Z,99.90
2023-05-08T07:29:27.757Z,99.90
2023-05-08T07:34:29.871Z,99.90
2023-05-08T07:39:32.017Z,99.90
2023-05-08T07:44:40.628Z,99.90
2023-05-08T07:49:45.613Z,99.90
2023-05-08T07:54:47.578Z,99.90
2023-05-08T07:59:49.594Z,99.90
2023-05-08T08:04:51.596Z,99.90
2023-05-08T08:09:53.695Z,99.90
2023-05-08T08:14:56.315Z,99.90
2023-05-08T08:19:58.439Z,99.90
2023-05-08T08:25:00.460Z,99.90
2023-05-08T08:30:15.590Z,99.90
2023-05-08T08:35:20.060Z,99.90
2023-05-08T08:40:22.656Z,99.90
2023-05-08T08:45:24.874Z,99.90
2023-05-08T08:50:29.993Z,99.90
2023-05-08T08:55:34.049Z,99.90
2023-05-08T09:00:37.414Z,99.90
2023-05-08T09:05:40.146Z,99.90
2023-05-08T09:10:42.561Z,99.90
2023-05-08T09:15:44.622Z,99.90
2023-05-08T09:20:47.258Z,99.90
2023-05-08T09:25:50.857Z,99.90
2023-05-08T09:30:59.040Z,99.90
2023-05-08T09:36:01.164Z,99.90
2023-05-08T09:41:16.925Z,99.90
2023-05-08T09:46:24.098Z,91.90
2023-05-08T09:51:27.669Z,83.40
2023-05-08T09:56:40.057Z,77.00
2023-05-08T10:01:42.277Z,77.30
2023-05-08T10:06:44.361Z,71.00
2023-05-08T10:11:55.610Z,65.10
2023-05-08T10:17:00.468Z,63.50
2023-05-08T10:22:04.661Z,59.40
2023-05-08T10:27:13.151Z,64.90
2023-05-08T10:32:19.195Z,67.30
2023-05-08T10:37:21.364Z,69.90
2023-05-08T10:42:23.573Z,65.20
2023-05-08T10:47:46.088Z,63.70
2023-05-08T10:52:55.030Z,64.20
2023-05-08T10:58:25.860Z,59.90
2023-05-08T11:03:32.764Z,58.40
2023-05-08T11:08:54.822Z,55.40
2023-05-08T11:14:12.242Z,58.40
2023-05-08T11:19:18.988Z,57.70
2023-05-08T11:24:34.851Z,61.40
2023-05-08T11:29:37.902Z,61.90
2023-05-08T11:34:43.444Z,61.70
2023-05-08T11:39:46.282Z,62.30
2023-05-08T11:44:48.322Z,64.50
2023-05-08T11:49:50.394Z,66.00
2023-05-08T11:54:52.440Z,61.70
2023-05-08T11:59:54.453Z,65.60
2023-05-08T12:04:56.583Z,67.90
2023-05-08T12:10:01.458Z,68.00
2023-05-08T12:15:15.634Z,67.00
2023-05-08T12:20:19.134Z,65.40
2023-05-08T12:25:21.690Z,60.90
2023-05-08T12:30:23.918Z,60.00
2023-05-08T12:35:26.486Z,60.50
2023-05-08T12:40:34.082Z,66.60
2023-05-08T12:45:41.232Z,64.50
2023-05-08T12:50:46.311Z,65.40
2023-05-08T12:55:57.226Z,64.00
2023-05-08T13:01:10.112Z,66.00
2023-05-08T13:06:22.459Z,66.80
2023-05-08T13:11:34.593Z,68.00
2023-05-08T13:16:47.926Z,65.50
2023-05-08T13:21:50.250Z,67.00
2023-05-08T13:26:52.312Z,66.90
2023-05-08T13:31:54.353Z,67.90
2023-05-08T13:36:56.528Z,65.80
2023-05-08T13:41:58.872Z,60.70
2023-05-08T13:47:01.033Z,59.50
2023-05-08T13:52:03.066Z,62.30
2023-05-08T13:57:05.076Z,63.60
2023-05-08T14:02:07.272Z,61.20
2023-05-08T14:07:09.361Z,59.20
2023-05-08T14:12:12.323Z,60.80
2023-05-08T14:17:14.501Z,59.10
2023-05-08T14:22:16.778Z,57.00
2023-05-08T14:27:19.048Z,57.40
2023-05-08T14:32:21.158Z,55.60
2023-05-08T14:37:23.316Z,56.20
2023-05-08T14:42:25.326Z,57.90
2023-05-08T14:47:27.396Z,58.00
2023-05-08T14:52:29.422Z,58.20
2023-05-08T14:57:31.495Z,53.90
2023-05-08T15:02:33.579Z,52.50
2023-05-08T15:07:36.559Z,52.30
2023-05-08T15:12:38.589Z,54.80
2023-05-08T15:17:41.650Z,56.80
2023-05-08T15:22:43.957Z,53.50
2023-05-08T15:27:46.220Z,53.40
2023-05-08T15:32:48.961Z,51.80
2023-05-08T15:37:51.042Z,51.80
2023-05-08T15:42:53.031Z,53.30
2023-05-08T15:47:55.034Z,49.70
2023-05-08T15:52:57.131Z,48.90
2023-05-08T15:57:59.154Z,48.90
2023-05-08T16:03:01.540Z,48.50
2023-05-08T16:08:03.679Z,47.80
2023-05-08T16:13:06.100Z,48.60
2023-05-08T16:18:08.625Z,48.50
2023-05-08T16:23:10.953Z,48.40
2023-05-08T16:28:12.951Z,48.50
2023-05-08T16:33:15.025Z,49.30
2023-05-08T16:38:17.228Z,48.00
2023-05-08T16:43:19.243Z,49.20
2023-05-08T16:48:21.457Z,46.60
2023-05-08T16:53:23.470Z,48.50
2023-05-08T16:58:27.215Z,48.30
2023-05-08T17:03:29.436Z,50.20
2023-05-08T17:08:31.659Z,51.50
2023-05-08T17:13:33.668Z,53.20
2023-05-08T17:18:35.940Z,52.30
2023-05-08T17:23:38.260Z,52.40
2023-05-08T17:28:40.346Z,54.60
2023-05-08T17:33:42.481Z,58.00
2023-05-08T17:38:46.123Z,61.00
2023-05-08T17:43:48.207Z,65.50
2023-05-08T17:48:50.294Z,71.20
2023-05-08T17:53:53.249Z,81.40
2023-05-08T17:58:55.785Z,91.10
2023-05-08T18:03:57.821Z,99.90
2023-05-08T18:08:59.988Z,99.90
2023-05-08T18:14:04.828Z,99.90
2023-05-08T18:19:07.097Z,99.90
2023-05-08T18:24:09.103Z,99.90
2023-05-08T18:29:11.215Z,99.90
2023-05-08T18:34:13.210Z,99.90
2023-05-08T18:39:15.402Z,99.90
2023-05-08T18:44:17.465Z,99.90
2023-05-08T18:49:19.572Z,99.90
2023-05-08T18:54:23.914Z,99.90
2023-05-08T18:59:26.093Z,99.90
2023-05-08T19:04:28.161Z,99.90
2023-05-08T19:09:30.246Z,99.90
2023-05-08T19:14:32.299Z,99.90
2023-05-08T19:19:34.601Z,99.90
2023-05-08T19:24:36.691Z,99.90
2023-05-08T19:29:38.741Z,99.90
2023-05-08T19:34:40.828Z,99.90
2023-05-08T19:39:42.960Z,99.90
2023-05-08T19:44:45.072Z,99.90
2023-05-08T19:49:47.070Z,99.90
2023-05-08T19:54:49.319Z,99.90
2023-05-08T19:59:51.515Z,99.90
2023-05-08T20:05:21.237Z,99.90
2023-05-08T20:10:15.783Z,99.90
2023-05-08T20:15:18.053Z,99.90
2023-05-08T20:20:20.355Z,99.90
2023-05-08T20:25:22.453Z,99.90
2023-05-08T20:30:24.768Z,99.90
2023-05-08T20:35:26.843Z,99.90
2023-05-08T20:40:28.919Z,99.90
2023-05-08T20:45:31.158Z,99.90
2023-05-08T20:50:33.251Z,99.90
2023-05-08T20:55:35.325Z,99.90
2023-05-08T21:00:37.456Z,99.90
2023-05-08T21:05:39.507Z,99.90
2023-05-08T21:10:41.524Z,99.90
2023-05-08T21:15:43.778Z,99.90
2023-05-08T21:20:50.131Z,99.90
2023-05-08T21:25:53.210Z,99.90
2023-05-08T21:30:55.398Z,99.90
2023-05-08T21:35:57.486Z,99.90
2023-05-08T21:41:08.543Z,99.90
2023-05-08T21:46:10.709Z,99.90
2023-05-08T21:51:12.797Z,99.90
2023-05-08T21:56:16.623Z,99.90
2023-05-08T22:01:18.732Z,99.90
2023-05-08T22:06:20.794Z,99.90
2023-05-08T22:11:22.852Z,99.90
2023-05-08T22:16:24.946Z,99.90
2023-05-08T22:21:30.169Z,99.90
2023-05-08T22:26:32.181Z,99.90
2023-05-08T22:31:34.318Z,99.90
2023-05-08T22:36:36.600Z,99.90
2023-05-08T22:41:39.333Z,99.90
2023-05-08T22:46:41.670Z,99.90
2023-05-08T22:51:43.759Z,99.90
2023-05-08T22:56:45.745Z,99.90
2023-05-08T23:01:47.800Z,99.90
2023-05-08T23:06:49.827Z,99.90
2023-05-08T23:11:51.963Z,99.90
2023-05-08T23:16:54.021Z,99.90
2023-05-08T23:21:56.612Z,99.90
2023-05-08T23:26:58.593Z,99.90
2023-05-08T23:32:00.930Z,99.90
2023-05-08T23:37:03.021Z,99.90
2023-05-08T23:42:05.134Z,99.90
2023-05-08T23:47:07.330Z,99.90
2023-05-08T23:52:10.297Z,99.90
2023-05-08T23:57:12.332Z,99.90
